sensor_id;sensor_type;location;lat;lon;timestamp;P1;durP1;ratioP1;P2;durP2;ratioP2
6791;SDS011;3433;48.730;9.108;2023-05-10T00:01:07;1.20;;;0.90;;
6791;SDS011;3433;48.730;9.108;2023-05-10T00:03:34;1.00;;;0.90;;
6791;SDS011;3433;48.730;9.108;2023-05-10T00:06:01;1.73;;;0.80;;
6791;SDS011;3433;48.730;9.108;2023-05-10T00:08:27;1.27;;;0.80;;
6791;SDS011;3433;48.730;9.108;2023-05-10T00:10:56;0.90;;;0.90;;
6791;SDS011;3433;48.730;9.108;2023-05-10T00:13:22;0.80;;;0.50;;
6791;SDS011;3433;48.730;9.108;2023-05-10T00:15:49;0.90;;;0.70;;
6791;SDS011;3433;48.730;9.108;2023-05-10T00:18:16;1.43;;;0.50;;
6791;SDS011;3433;48.730;9.108;2023-05-10T00:20:43;0.60;;;0.50;;
6791;SDS011;3433;48.730;9.108;2023-05-10T00:23:11;0.60;;;0.50;;
6791;SDS011;3433;48.730;9.108;2023-05-10T00:25:38;0.60;;;0.50;;
6791;SDS011;3433;48.730;9.108;2023-05-10T00:28:06;0.73;;;0.40;;
6791;SDS011;3433;48.730;9.108;2023-05-10T00:30:33;0.97;;;0.40;;
6791;SDS011;3433;48.730;9.108;2023-05-10T00:33:00;1.63;;;0.43;;
6791;SDS011;3433;48.730;9.108;2023-05-10T00:35:27;0.70;;;0.57;;
6791;SDS011;3433;48.730;9.108;2023-05-10T00:37:53;3.03;;;0.57;;
6791;SDS011;3433;48.730;9.108;2023-05-10T00:40:20;0.90;;;0.40;;
6791;SDS011;3433;48.730;9.108;2023-05-10T00:42:47;1.40;;;0.40;;
6791;SDS011;3433;48.730;9.108;2023-05-10T00:45:15;0.70;;;0.40;;
6791;SDS011;3433;48.730;9.108;2023-05-10T00:47:42;1.80;;;0.40;;
6791;SDS011;3433;48.730;9.108;2023-05-10T00:50:09;3.00;;;0.50;;
6791;SDS011;3433;48.730;9.108;2023-05-10T00:52:36;0.70;;;0.50;;
6791;SDS011;3433;48.730;9.108;2023-05-10T00:55:03;3.80;;;0.60;;
6791;SDS011;3433;48.730;9.108;2023-05-10T00:57:32;1.63;;;0.40;;
6791;SDS011;3433;48.730;9.108;2023-05-10T00:59:59;0.83;;;0.50;;
6791;SDS011;3433;48.730;9.108;2023-05-10T01:02:27;0.60;;;0.40;;
6791;SDS011;3433;48.730;9.108;2023-05-10T01:04:54;0.60;;;0.40;;
6791;SDS011;3433;48.730;9.108;2023-05-10T01:07:21;0.83;;;0.50;;
6791;SDS011;3433;48.730;9.108;2023-05-10T01:09:48;1.47;;;0.40;;
6791;SDS011;3433;48.730;9.108;2023-05-10T01:12:18;0.87;;;0.40;;
6791;SDS011;3433;48.730;9.108;2023-05-10T01:14:45;0.53;;;0.40;;
6791;SDS011;3433;48.730;9.108;2023-05-10T01:17:12;0.70;;;0.40;;
6791;SDS011;3433;48.730;9.108;2023-05-10T01:19:40;0.80;;;0.40;;
6791;SDS011;3433;48.730;9.108;2023-05-10T01:22:11;0.60;;;0.40;;
6791;SDS011;3433;48.730;9.108;2023-05-10T01:24:59;1.53;;;0.50;;
6791;SDS011;3433;48.730;9.108;2023-05-10T01:27:47;2.10;;;0.50;;
6791;SDS011;3433;48.730;9.108;2023-05-10T01:30:35;1.30;;;0.40;;
6791;SDS011;3433;48.730;9.108;2023-05-10T01:33:28;1.00;;;0.50;;
6791;SDS011;3433;48.730;9.108;2023-05-10T01:36:02;1.23;;;0.40;;
6791;SDS011;3433;48.730;9.108;2023-05-10T01:38:32;1.30;;;0.40;;
6791;SDS011;3433;48.730;9.108;2023-05-10T01:41:09;2.83;;;0.50;;
6791;SDS011;3433;48.730;9.108;2023-05-10T01:43:43;1.43;;;0.73;;
6791;SDS011;3433;48.730;9.108;2023-05-10T01:46:20;1.37;;;0.40;;
6791;SDS011;3433;48.730;9.108;2023-05-10T01:48:56;0.50;;;0.40;;
6791;SDS011;3433;48.730;9.108;2023-05-10T01:51:25;0.70;;;0.43;;
6791;SDS011;3433;48.730;9.108;2023-05-10T01:53:58;0.60;;;0.40;;
6791;SDS011;3433;48.730;9.108;2023-05-10T01:56:28;0.60;;;0.40;;
6791;SDS011;3433;48.730;9.108;2023-05-10T01:58:58;0.60;;;0.50;;
6791;SDS011;3433;48.730;9.108;2023-05-10T02:01:27;0.57;;;0.50;;
6791;SDS011;3433;48.730;9.108;2023-05-10T02:03:56;1.80;;;0.40;;
6791;SDS011;3433;48.730;9.108;2023-05-10T02:06:24;0.50;;;0.40;;
6791;SDS011;3433;48.730;9.108;2023-05-10T02:08:53;1.03;;;0.40;;
6791;SDS011;3433;48.730;9.108;2023-05-10T02:11:20;0.60;;;0.40;;
6791;SDS011;3433;48.730;9.108;2023-05-10T02:13:48;0.60;;;0.50;;
6791;SDS011;3433;48.730;9.108;2023-05-10T02:16:16;2.87;;;0.40;;
6791;SDS011;3433;48.730;9.108;2023-05-10T02:18:48;0.50;;;0.40;;
6791;SDS011;3433;48.730;9.108;2023-05-10T02:21:17;0.90;;;0.50;;
6791;SDS011;3433;48.730;9.108;2023-05-10T02:23:46;0.50;;;0.40;;
6791;SDS011;3433;48.730;9.108;2023-05-10T02:26:14;0.60;;;0.40;;
6791;SDS011;3433;48.730;9.108;2023-05-10T02:28:43;1.03;;;0.50;;
6791;SDS011;3433;48.730;9.108;2023-05-10T02:31:10;0.70;;;0.50;;
6791;SDS011;3433;48.730;9.108;2023-05-10T02:33:38;0.60;;;0.50;;
6791;SDS011;3433;48.730;9.108;2023-05-10T02:36:06;0.90;;;0.50;;
6791;SDS011;3433;48.730;9.108;2023-05-10T02:38:37;0.50;;;0.47;;
6791;SDS011;3433;48.730;9.108;2023-05-10T02:41:05;1.20;;;0.50;;
6791;SDS011;3433;48.730;9.108;2023-05-10T02:43:33;0.67;;;0.63;;
6791;SDS011;3433;48.730;9.108;2023-05-10T02:46:02;3.57;;;0.70;;
6791;SDS011;3433;48.730;9.108;2023-05-10T02:48:29;0.80;;;0.70;;
6791;SDS011;3433;48.730;9.108;2023-05-10T02:50:56;0.80;;;0.53;;
6791;SDS011;3433;48.730;9.108;2023-05-10T02:53:30;1.50;;;0.60;;
6791;SDS011;3433;48.730;9.108;2023-05-10T02:56:01;0.70;;;0.67;;
6791;SDS011;3433;48.730;9.108;2023-05-10T02:58:36;0.60;;;0.57;;
6791;SDS011;3433;48.730;9.108;2023-05-10T03:01:03;0.63;;;0.60;;
6791;SDS011;3433;48.730;9.108;2023-05-10T03:03:30;1.93;;;0.90;;
6791;SDS011;3433;48.730;9.108;2023-05-10T03:05:57;0.90;;;0.90;;
6791;SDS011;3433;48.730;9.108;2023-05-10T03:08:24;1.63;;;0.73;;
6791;SDS011;3433;48.730;9.108;2023-05-10T03:10:55;5.50;;;0.90;;
6791;SDS011;3433;48.730;9.108;2023-05-10T03:13:48;1.07;;;0.97;;
6791;SDS011;3433;48.730;9.108;2023-05-10T03:16:27;0.87;;;0.87;;
6791;SDS011;3433;48.730;9.108;2023-05-10T03:19:06;2.50;;;0.80;;
6791;SDS011;3433;48.730;9.108;2023-05-10T03:21:43;1.93;;;1.27;;
6791;SDS011;3433;48.730;9.108;2023-05-10T03:24:15;1.10;;;1.00;;
6791;SDS011;3433;48.730;9.108;2023-05-10T03:26:46;1.60;;;1.03;;
6791;SDS011;3433;48.730;9.108;2023-05-10T03:29:18;1.10;;;1.00;;
6791;SDS011;3433;48.730;9.108;2023-05-10T03:31:46;2.80;;;1.10;;
6791;SDS011;3433;48.730;9.108;2023-05-10T03:34:13;4.93;;;1.00;;
6791;SDS011;3433;48.730;9.108;2023-05-10T03:36:40;1.53;;;1.10;;
6791;SDS011;3433;48.730;9.108;2023-05-10T03:39:06;1.27;;;1.17;;
6791;SDS011;3433;48.730;9.108;2023-05-10T03:41:34;1.17;;;1.07;;
6791;SDS011;3433;48.730;9.108;2023-05-10T03:44:02;0.73;;;0.73;;
6791;SDS011;3433;48.730;9.108;2023-05-10T03:46:29;1.10;;;1.00;;
6791;SDS011;3433;48.730;9.108;2023-05-10T03:48:56;1.53;;;1.20;;
6791;SDS011;3433;48.730;9.108;2023-05-10T03:51:23;0.80;;;0.80;;
6791;SDS011;3433;48.730;9.108;2023-05-10T03:53:53;0.80;;;0.80;;
6791;SDS011;3433;48.730;9.108;2023-05-10T03:56:19;1.57;;;1.10;;
6791;SDS011;3433;48.730;9.108;2023-05-10T03:58:46;2.17;;;0.93;;
6791;SDS011;3433;48.730;9.108;2023-05-10T04:01:15;2.40;;;1.00;;
6791;SDS011;3433;48.730;9.108;2023-05-10T04:03:42;1.10;;;1.00;;
6791;SDS011;3433;48.730;9.108;2023-05-10T04:06:08;2.40;;;1.40;;
6791;SDS011;3433;48.730;9.108;2023-05-10T04:08:36;1.20;;;1.10;;
6791;SDS011;3433;48.730;9.108;2023-05-10T04:11:06;1.30;;;1.20;;
6791;SDS011;3433;48.730;9.108;2023-05-10T04:13:34;2.30;;;1.07;;
6791;SDS011;3433;48.730;9.108;2023-05-10T04:16:00;2.23;;;1.20;;
6791;SDS011;3433;48.730;9.108;2023-05-10T04:18:29;2.93;;;0.90;;
6791;SDS011;3433;48.730;9.108;2023-05-10T04:20:56;1.40;;;1.10;;
6791;SDS011;3433;48.730;9.108;2023-05-10T04:23:23;2.10;;;1.20;;
6791;SDS011;3433;48.730;9.108;2023-05-10T04:25:50;1.10;;;1.00;;
6791;SDS011;3433;48.730;9.108;2023-05-10T04:28:17;1.40;;;1.17;;
6791;SDS011;3433;48.730;9.108;2023-05-10T04:31:08;1.37;;;1.13;;
6791;SDS011;3433;48.730;9.108;2023-05-10T04:33:37;1.00;;;0.90;;
6791;SDS011;3433;48.730;9.108;2023-05-10T04:36:05;1.37;;;1.27;;
6791;SDS011;3433;48.730;9.108;2023-05-10T04:38:32;1.27;;;1.17;;
6791;SDS011;3433;48.730;9.108;2023-05-10T04:41:03;2.50;;;1.30;;
6791;SDS011;3433;48.730;9.108;2023-05-10T04:43:31;1.23;;;1.10;;
6791;SDS011;3433;48.730;9.108;2023-05-10T04:45:58;2.40;;;1.30;;
6791;SDS011;3433;48.730;9.108;2023-05-10T04:48:25;1.20;;;1.07;;
6791;SDS011;3433;48.730;9.108;2023-05-10T04:50:53;2.50;;;1.40;;
6791;SDS011;3433;48.730;9.108;2023-05-10T04:53:20;2.03;;;1.20;;
6791;SDS011;3433;48.730;9.108;2023-05-10T04:55:47;1.60;;;1.10;;
6791;SDS011;3433;48.730;9.108;2023-05-10T04:58:17;2.63;;;1.20;;
6791;SDS011;3433;48.730;9.108;2023-05-10T05:00:43;1.30;;;1.20;;
6791;SDS011;3433;48.730;9.108;2023-05-10T05:03:10;2.33;;;1.43;;
6791;SDS011;3433;48.730;9.108;2023-05-10T05:05:37;1.87;;;1.40;;
6791;SDS011;3433;48.730;9.108;2023-05-10T05:08:05;1.90;;;1.70;;
6791;SDS011;3433;48.730;9.108;2023-05-10T05:10:32;3.90;;;1.63;;
6791;SDS011;3433;48.730;9.108;2023-05-10T05:12:59;1.60;;;1.47;;
6791;SDS011;3433;48.730;9.108;2023-05-10T05:15:26;1.40;;;1.30;;
6791;SDS011;3433;48.730;9.108;2023-05-10T05:17:53;1.90;;;1.37;;
6791;SDS011;3433;48.730;9.108;2023-05-10T05:20:20;2.50;;;1.50;;
6791;SDS011;3433;48.730;9.108;2023-05-10T05:22:47;5.83;;;2.17;;
6791;SDS011;3433;48.730;9.108;2023-05-10T05:25:15;2.57;;;1.63;;
6791;SDS011;3433;48.730;9.108;2023-05-10T05:27:42;1.83;;;1.73;;
6791;SDS011;3433;48.730;9.108;2023-05-10T05:30:09;1.77;;;1.30;;
6791;SDS011;3433;48.730;9.108;2023-05-10T05:32:37;4.63;;;1.60;;
6791;SDS011;3433;48.730;9.108;2023-05-10T05:35:04;1.40;;;1.30;;
6791;SDS011;3433;48.730;9.108;2023-05-10T05:37:32;4.23;;;1.90;;
6791;SDS011;3433;48.730;9.108;2023-05-10T05:40:01;2.80;;;1.60;;
6791;SDS011;3433;48.730;9.108;2023-05-10T05:42:30;4.63;;;1.50;;
6791;SDS011;3433;48.730;9.108;2023-05-10T05:44:57;1.60;;;1.50;;
6791;SDS011;3433;48.730;9.108;2023-05-10T05:47:24;4.00;;;1.40;;
6791;SDS011;3433;48.730;9.108;2023-05-10T05:49:54;2.00;;;1.80;;
6791;SDS011;3433;48.730;9.108;2023-05-10T05:52:21;1.60;;;1.50;;
6791;SDS011;3433;48.730;9.108;2023-05-10T05:54:51;3.40;;;1.80;;
6791;SDS011;3433;48.730;9.108;2023-05-10T05:57:24;7.50;;;2.07;;
6791;SDS011;3433;48.730;9.108;2023-05-10T06:00:13;1.60;;;1.50;;
6791;SDS011;3433;48.730;9.108;2023-05-10T06:02:41;1.83;;;1.73;;
6791;SDS011;3433;48.730;9.108;2023-05-10T06:05:08;1.73;;;1.63;;
6791;SDS011;3433;48.730;9.108;2023-05-10T06:07:35;7.57;;;2.03;;
6791;SDS011;3433;48.730;9.108;2023-05-10T06:10:02;1.87;;;1.73;;
6791;SDS011;3433;48.730;9.108;2023-05-10T06:12:30;5.90;;;1.50;;
6791;SDS011;3433;48.730;9.108;2023-05-10T06:17:34;1.87;;;1.53;;
6791;SDS011;3433;48.730;9.108;2023-05-10T06:20:24;4.17;;;1.40;;
6791;SDS011;3433;48.730;9.108;2023-05-10T06:26:18;2.53;;;1.73;;
6791;SDS011;3433;48.730;9.108;2023-05-10T06:28:46;2.70;;;1.60;;
6791;SDS011;3433;48.730;9.108;2023-05-10T06:31:16;2.00;;;1.67;;
6791;SDS011;3433;48.730;9.108;2023-05-10T06:36:42;2.03;;;1.80;;
6791;SDS011;3433;48.730;9.108;2023-05-10T06:39:23;2.80;;;2.00;;
6791;SDS011;3433;48.730;9.108;2023-05-10T06:41:50;2.23;;;1.43;;
6791;SDS011;3433;48.730;9.108;2023-05-10T06:44:19;3.97;;;1.77;;
6791;SDS011;3433;48.730;9.108;2023-05-10T06:47:00;2.43;;;1.70;;
6791;SDS011;3433;48.730;9.108;2023-05-10T06:49:48;2.30;;;2.10;;
6791;SDS011;3433;48.730;9.108;2023-05-10T06:52:16;2.03;;;1.67;;
6791;SDS011;3433;48.730;9.108;2023-05-10T06:54:43;1.80;;;1.57;;
6791;SDS011;3433;48.730;9.108;2023-05-10T06:57:10;1.70;;;1.60;;
6791;SDS011;3433;48.730;9.108;2023-05-10T06:59:37;2.70;;;1.73;;
6791;SDS011;3433;48.730;9.108;2023-05-10T07:02:04;2.70;;;2.20;;
6791;SDS011;3433;48.730;9.108;2023-05-10T07:04:32;1.80;;;1.70;;
6791;SDS011;3433;48.730;9.108;2023-05-10T07:07:01;2.20;;;2.00;;
6791;SDS011;3433;48.730;9.108;2023-05-10T07:09:28;4.97;;;2.30;;
6791;SDS011;3433;48.730;9.108;2023-05-10T07:11:55;1.77;;;1.67;;
6791;SDS011;3433;48.730;9.108;2023-05-10T07:14:22;2.40;;;2.20;;
6791;SDS011;3433;48.730;9.108;2023-05-10T07:16:50;2.10;;;1.90;;
6791;SDS011;3433;48.730;9.108;2023-05-10T07:19:17;2.43;;;1.80;;
6791;SDS011;3433;48.730;9.108;2023-05-10T07:21:44;2.53;;;2.30;;
6791;SDS011;3433;48.730;9.108;2023-05-10T07:24:13;2.00;;;1.80;;
6791;SDS011;3433;48.730;9.108;2023-05-10T07:26:41;3.10;;;1.80;;
6791;SDS011;3433;48.730;9.108;2023-05-10T07:29:08;2.20;;;1.70;;
6791;SDS011;3433;48.730;9.108;2023-05-10T07:31:37;3.67;;;1.73;;
6791;SDS011;3433;48.730;9.108;2023-05-10T07:34:06;2.10;;;1.87;;
6791;SDS011;3433;48.730;9.108;2023-05-10T07:36:34;2.07;;;1.80;;
6791;SDS011;3433;48.730;9.108;2023-05-10T07:39:01;2.07;;;1.30;;
6791;SDS011;3433;48.730;9.108;2023-05-10T07:41:29;2.00;;;1.67;;
6791;SDS011;3433;48.730;9.108;2023-05-10T07:43:56;1.30;;;1.20;;
6791;SDS011;3433;48.730;9.108;2023-05-10T07:46:23;2.13;;;1.50;;
6791;SDS011;3433;48.730;9.108;2023-05-10T07:48:53;1.93;;;1.30;;
6791;SDS011;3433;48.730;9.108;2023-05-10T07:51:24;1.60;;;1.50;;
6791;SDS011;3433;48.730;9.108;2023-05-10T07:53:53;2.53;;;1.20;;
6791;SDS011;3433;48.730;9.108;2023-05-10T07:56:34;2.27;;;1.10;;
6791;SDS011;3433;48.730;9.108;2023-05-10T07:59:02;2.93;;;1.50;;
6791;SDS011;3433;48.730;9.108;2023-05-10T08:01:32;1.67;;;1.10;;
6791;SDS011;3433;48.730;9.108;2023-05-10T08:04:00;1.40;;;1.30;;
6791;SDS011;3433;48.730;9.108;2023-05-10T08:09:18;2.10;;;1.43;;
6791;SDS011;3433;48.730;9.108;2023-05-10T08:11:50;1.90;;;1.43;;
6791;SDS011;3433;48.730;9.108;2023-05-10T08:14:19;1.20;;;1.10;;
6791;SDS011;3433;48.730;9.108;2023-05-10T08:16:49;2.00;;;1.00;;
6791;SDS011;3433;48.730;9.108;2023-05-10T08:19:15;11.63;;;1.80;;
6791;SDS011;3433;48.730;9.108;2023-05-10T08:21:44;4.20;;;0.90;;
6791;SDS011;3433;48.730;9.108;2023-05-10T08:24:11;3.93;;;1.10;;
6791;SDS011;3433;48.730;9.108;2023-05-10T08:26:38;1.10;;;1.00;;
6791;SDS011;3433;48.730;9.108;2023-05-10T08:29:06;2.03;;;1.03;;
6791;SDS011;3433;48.730;9.108;2023-05-10T08:31:34;3.03;;;1.20;;
6791;SDS011;3433;48.730;9.108;2023-05-10T08:34:01;1.70;;;1.30;;
6791;SDS011;3433;48.730;9.108;2023-05-10T08:36:28;1.33;;;1.23;;
6791;SDS011;3433;48.730;9.108;2023-05-10T08:38:55;1.40;;;1.30;;
6791;SDS011;3433;48.730;9.108;2023-05-10T08:41:36;1.43;;;1.10;;
6791;SDS011;3433;48.730;9.108;2023-05-10T08:44:08;1.40;;;1.10;;
6791;SDS011;3433;48.730;9.108;2023-05-10T08:46:35;0.80;;;0.80;;
6791;SDS011;3433;48.730;9.108;2023-05-10T08:49:05;1.00;;;0.90;;
6791;SDS011;3433;48.730;9.108;2023-05-10T08:51:41;1.03;;;0.93;;
6791;SDS011;3433;48.730;9.108;2023-05-10T08:54:16;1.00;;;0.70;;
6791;SDS011;3433;48.730;9.108;2023-05-10T08:56:43;2.00;;;0.80;;
6791;SDS011;3433;48.730;9.108;2023-05-10T08:59:11;0.90;;;0.70;;
6791;SDS011;3433;48.730;9.108;2023-05-10T09:01:39;3.80;;;0.80;;
6791;SDS011;3433;48.730;9.108;2023-05-10T09:04:09;0.87;;;0.80;;
6791;SDS011;3433;48.730;9.108;2023-05-10T09:06:37;0.93;;;0.83;;
6791;SDS011;3433;48.730;9.108;2023-05-10T09:09:04;1.87;;;1.23;;
6791;SDS011;3433;48.730;9.108;2023-05-10T09:11:31;0.70;;;0.60;;
6791;SDS011;3433;48.730;9.108;2023-05-10T09:13:58;1.37;;;0.87;;
6791;SDS011;3433;48.730;9.108;2023-05-10T09:16:27;2.03;;;1.23;;
6791;SDS011;3433;48.730;9.108;2023-05-10T09:18:54;4.40;;;0.80;;
6791;SDS011;3433;48.730;9.108;2023-05-10T09:21:21;1.73;;;0.80;;
6791;SDS011;3433;48.730;9.108;2023-05-10T09:23:47;0.97;;;0.73;;
6791;SDS011;3433;48.730;9.108;2023-05-10T09:26:21;0.80;;;0.70;;
6791;SDS011;3433;48.730;9.108;2023-05-10T09:28:52;0.93;;;0.80;;
6791;SDS011;3433;48.730;9.108;2023-05-10T09:37:57;1.47;;;1.00;;
6791;SDS011;3433;48.730;9.108;2023-05-10T09:40:30;1.23;;;0.60;;
6791;SDS011;3433;48.730;9.108;2023-05-10T09:43:11;1.67;;;0.83;;
6791;SDS011;3433;48.730;9.108;2023-05-10T09:46:47;1.47;;;0.70;;
6791;SDS011;3433;48.730;9.108;2023-05-10T10:00:16;1.20;;;0.60;;
6791;SDS011;3433;48.730;9.108;2023-05-10T10:02:59;0.60;;;0.60;;
6791;SDS011;3433;48.730;9.108;2023-05-10T10:06:30;2.10;;;1.30;;
6791;SDS011;3433;48.730;9.108;2023-05-10T10:10:02;3.50;;;0.70;;
6791;SDS011;3433;48.730;9.108;2023-05-10T10:12:30;1.30;;;0.70;;
6791;SDS011;3433;48.730;9.108;2023-05-10T10:14:57;1.10;;;0.80;;
6791;SDS011;3433;48.730;9.108;2023-05-10T10:17:36;3.77;;;0.70;;
6791;SDS011;3433;48.730;9.108;2023-05-10T10:20:04;1.00;;;0.83;;
6791;SDS011;3433;48.730;9.108;2023-05-10T10:22:39;0.80;;;0.80;;
6791;SDS011;3433;48.730;9.108;2023-05-10T10:25:30;1.10;;;0.90;;
6791;SDS011;3433;48.730;9.108;2023-05-10T10:28:01;1.93;;;1.30;;
6791;SDS011;3433;48.730;9.108;2023-05-10T10:30:41;0.80;;;0.70;;
6791;SDS011;3433;48.730;9.108;2023-05-10T10:33:28;0.90;;;0.77;;
6791;SDS011;3433;48.730;9.108;2023-05-10T10:36:24;1.17;;;0.60;;
6791;SDS011;3433;48.730;9.108;2023-05-10T10:38:59;1.20;;;0.83;;
6791;SDS011;3433;48.730;9.108;2023-05-10T10:41:36;1.10;;;0.70;;
6791;SDS011;3433;48.730;9.108;2023-05-10T10:46:59;1.20;;;0.80;;
6791;SDS011;3433;48.730;9.108;2023-05-10T10:49:31;0.87;;;0.83;;
6791;SDS011;3433;48.730;9.108;2023-05-10T10:54:57;1.00;;;0.50;;
6791;SDS011;3433;48.730;9.108;2023-05-10T10:57:28;1.13;;;0.80;;
6791;SDS011;3433;48.730;9.108;2023-05-10T11:02:56;0.80;;;0.80;;
6791;SDS011;3433;48.730;9.108;2023-05-10T11:05:26;2.67;;;0.70;;
6791;SDS011;3433;48.730;9.108;2023-05-10T11:08:15;1.53;;;0.53;;
6791;SDS011;3433;48.730;9.108;2023-05-10T11:13:34;0.80;;;0.80;;
6791;SDS011;3433;48.730;9.108;2023-05-10T11:18:52;2.50;;;0.80;;
6791;SDS011;3433;48.730;9.108;2023-05-10T11:21:25;1.60;;;0.63;;
6791;SDS011;3433;48.730;9.108;2023-05-10T11:23:52;2.50;;;0.67;;
6791;SDS011;3433;48.730;9.108;2023-05-10T11:26:22;1.23;;;0.83;;
6791;SDS011;3433;48.730;9.108;2023-05-10T11:28:52;0.90;;;0.70;;
6791;SDS011;3433;48.730;9.108;2023-05-10T11:31:21;1.37;;;1.00;;
6791;SDS011;3433;48.730;9.108;2023-05-10T11:33:49;3.17;;;1.50;;
6791;SDS011;3433;48.730;9.108;2023-05-10T11:36:18;0.70;;;0.70;;
6791;SDS011;3433;48.730;9.108;2023-05-10T11:38:46;0.70;;;0.70;;
6791;SDS011;3433;48.730;9.108;2023-05-10T11:41:17;0.90;;;0.60;;
6791;SDS011;3433;48.730;9.108;2023-05-10T11:43:47;1.23;;;0.90;;
6791;SDS011;3433;48.730;9.108;2023-05-10T11:46:20;6.37;;;1.03;;
6791;SDS011;3433;48.730;9.108;2023-05-10T11:48:49;13.60;;;1.77;;
6791;SDS011;3433;48.730;9.108;2023-05-10T11:51:19;8.93;;;1.87;;
6791;SDS011;3433;48.730;9.108;2023-05-10T11:53:47;1.93;;;1.00;;
6791;SDS011;3433;48.730;9.108;2023-05-10T11:56:18;0.90;;;0.77;;
6791;SDS011;3433;48.730;9.108;2023-05-10T11:58:51;1.33;;;0.80;;
6791;SDS011;3433;48.730;9.108;2023-05-10T12:01:20;1.20;;;0.80;;
6791;SDS011;3433;48.730;9.108;2023-05-10T12:03:48;2.07;;;0.83;;
6791;SDS011;3433;48.730;9.108;2023-05-10T12:06:19;1.30;;;1.00;;
6791;SDS011;3433;48.730;9.108;2023-05-10T12:08:47;1.20;;;1.07;;
6791;SDS011;3433;48.730;9.108;2023-05-10T12:11:17;0.90;;;0.80;;
6791;SDS011;3433;48.730;9.108;2023-05-10T12:13:45;1.33;;;1.03;;
6791;SDS011;3433;48.730;9.108;2023-05-10T12:16:17;2.90;;;1.30;;
6791;SDS011;3433;48.730;9.108;2023-05-10T12:18:49;1.37;;;1.10;;
6791;SDS011;3433;48.730;9.108;2023-05-10T12:21:16;1.00;;;0.80;;
6791;SDS011;3433;48.730;9.108;2023-05-10T12:23:45;1.77;;;0.97;;
6791;SDS011;3433;48.730;9.108;2023-05-10T12:26:12;1.77;;;0.93;;
6791;SDS011;3433;48.730;9.108;2023-05-10T12:28:41;1.30;;;1.20;;
6791;SDS011;3433;48.730;9.108;2023-05-10T12:31:16;3.13;;;1.20;;
6791;SDS011;3433;48.730;9.108;2023-05-10T12:33:43;2.00;;;1.23;;
6791;SDS011;3433;48.730;9.108;2023-05-10T12:36:14;3.87;;;1.00;;
6791;SDS011;3433;48.730;9.108;2023-05-10T12:38:43;3.77;;;1.30;;
6791;SDS011;3433;48.730;9.108;2023-05-10T12:41:16;1.70;;;1.60;;
6791;SDS011;3433;48.730;9.108;2023-05-10T12:43:44;2.77;;;1.50;;
6791;SDS011;3433;48.730;9.108;2023-05-10T12:46:12;1.73;;;1.20;;
6791;SDS011;3433;48.730;9.108;2023-05-10T12:48:41;2.10;;;1.23;;
6791;SDS011;3433;48.730;9.108;2023-05-10T12:51:08;2.50;;;1.30;;
6791;SDS011;3433;48.730;9.108;2023-05-10T12:53:39;7.60;;;1.50;;
6791;SDS011;3433;48.730;9.108;2023-05-10T12:56:06;1.27;;;0.97;;
6791;SDS011;3433;48.730;9.108;2023-05-10T12:58:33;1.23;;;0.90;;
6791;SDS011;3433;48.730;9.108;2023-05-10T13:01:00;1.30;;;0.90;;
6791;SDS011;3433;48.730;9.108;2023-05-10T13:03:27;2.30;;;1.10;;
6791;SDS011;3433;48.730;9.108;2023-05-10T13:05:54;1.93;;;0.90;;
6791;SDS011;3433;48.730;9.108;2023-05-10T13:08:21;3.70;;;1.57;;
6791;SDS011;3433;48.730;9.108;2023-05-10T13:10:49;1.10;;;1.10;;
6791;SDS011;3433;48.730;9.108;2023-05-10T13:13:16;3.07;;;1.00;;
6791;SDS011;3433;48.730;9.108;2023-05-10T13:15:43;4.47;;;1.80;;
6791;SDS011;3433;48.730;9.108;2023-05-10T13:18:10;1.97;;;1.20;;
6791;SDS011;3433;48.730;9.108;2023-05-10T13:20:37;2.73;;;1.20;;
6791;SDS011;3433;48.730;9.108;2023-05-10T13:23:04;1.00;;;1.00;;
6791;SDS011;3433;48.730;9.108;2023-05-10T13:25:31;1.30;;;1.20;;
6791;SDS011;3433;48.730;9.108;2023-05-10T13:28:00;3.63;;;0.93;;
6791;SDS011;3433;48.730;9.108;2023-05-10T13:30:27;2.83;;;0.83;;
6791;SDS011;3433;48.730;9.108;2023-05-10T13:32:54;2.30;;;1.30;;
6791;SDS011;3433;48.730;9.108;2023-05-10T13:35:21;3.57;;;1.27;;
6791;SDS011;3433;48.730;9.108;2023-05-10T13:37:48;2.90;;;1.67;;
6791;SDS011;3433;48.730;9.108;2023-05-10T13:40:18;1.50;;;1.20;;
6791;SDS011;3433;48.730;9.108;2023-05-10T13:42:45;2.93;;;1.23;;
6791;SDS011;3433;48.730;9.108;2023-05-10T13:45:13;1.90;;;1.20;;
6791;SDS011;3433;48.730;9.108;2023-05-10T13:47:41;2.50;;;1.13;;
6791;SDS011;3433;48.730;9.108;2023-05-10T13:50:07;1.50;;;1.40;;
6791;SDS011;3433;48.730;9.108;2023-05-10T13:52:35;1.30;;;1.20;;
6791;SDS011;3433;48.730;9.108;2023-05-10T13:55:02;1.93;;;1.40;;
6791;SDS011;3433;48.730;9.108;2023-05-10T13:57:29;2.30;;;1.30;;
6791;SDS011;3433;48.730;9.108;2023-05-10T13:59:56;1.40;;;1.30;;
6791;SDS011;3433;48.730;9.108;2023-05-10T14:02:24;1.20;;;1.10;;
6791;SDS011;3433;48.730;9.108;2023-05-10T14:04:52;1.97;;;1.20;;
6791;SDS011;3433;48.730;9.108;2023-05-10T14:07:19;1.40;;;1.10;;
6791;SDS011;3433;48.730;9.108;2023-05-10T14:09:46;2.07;;;1.17;;
6791;SDS011;3433;48.730;9.108;2023-05-10T14:12:13;1.87;;;1.13;;
6791;SDS011;3433;48.730;9.108;2023-05-10T14:14:41;6.70;;;1.50;;
6791;SDS011;3433;48.730;9.108;2023-05-10T14:17:08;1.30;;;1.20;;
6791;SDS011;3433;48.730;9.108;2023-05-10T14:19:36;1.00;;;0.97;;
6791;SDS011;3433;48.730;9.108;2023-05-10T14:22:03;1.40;;;1.30;;
6791;SDS011;3433;48.730;9.108;2023-05-10T14:24:30;1.33;;;1.00;;
6791;SDS011;3433;48.730;9.108;2023-05-10T14:26:57;2.57;;;1.20;;
6791;SDS011;3433;48.730;9.108;2023-05-10T14:29:24;2.60;;;0.90;;
6791;SDS011;3433;48.730;9.108;2023-05-10T14:31:51;2.40;;;1.10;;
6791;SDS011;3433;48.730;9.108;2023-05-10T14:34:18;1.20;;;0.90;;
6791;SDS011;3433;48.730;9.108;2023-05-10T14:36:46;2.97;;;1.13;;
6791;SDS011;3433;48.730;9.108;2023-05-10T14:39:16;3.33;;;1.73;;
6791;SDS011;3433;48.730;9.108;2023-05-10T14:41:43;2.20;;;1.13;;
6791;SDS011;3433;48.730;9.108;2023-05-10T14:44:10;3.03;;;1.00;;
6791;SDS011;3433;48.730;9.108;2023-05-10T14:46:37;3.73;;;1.20;;
6791;SDS011;3433;48.730;9.108;2023-05-10T14:49:04;1.30;;;1.10;;
6791;SDS011;3433;48.730;9.108;2023-05-10T14:51:31;3.20;;;1.03;;
6791;SDS011;3433;48.730;9.108;2023-05-10T14:53:59;2.20;;;1.17;;
6791;SDS011;3433;48.730;9.108;2023-05-10T14:56:27;3.60;;;1.23;;
6791;SDS011;3433;48.730;9.108;2023-05-10T14:58:54;2.83;;;1.10;;
6791;SDS011;3433;48.730;9.108;2023-05-10T15:01:21;3.70;;;2.60;;
6791;SDS011;3433;48.730;9.108;2023-05-10T15:03:48;1.60;;;1.37;;
6791;SDS011;3433;48.730;9.108;2023-05-10T15:06:15;4.63;;;1.50;;
6791;SDS011;3433;48.730;9.108;2023-05-10T15:08:42;1.20;;;1.10;;
6791;SDS011;3433;48.730;9.108;2023-05-10T15:11:10;1.37;;;1.00;;
6791;SDS011;3433;48.730;9.108;2023-05-10T15:13:37;3.37;;;1.77;;
6791;SDS011;3433;48.730;9.108;2023-05-10T15:16:07;2.60;;;1.30;;
6791;SDS011;3433;48.730;9.108;2023-05-10T15:18:34;1.53;;;1.20;;
6791;SDS011;3433;48.730;9.108;2023-05-10T15:21:00;1.00;;;0.90;;
6791;SDS011;3433;48.730;9.108;2023-05-10T15:23:27;4.90;;;1.37;;
6791;SDS011;3433;48.730;9.108;2023-05-10T15:25:55;1.57;;;1.47;;
6791;SDS011;3433;48.730;9.108;2023-05-10T15:28:23;1.10;;;1.00;;
6791;SDS011;3433;48.730;9.108;2023-05-10T15:30:50;2.70;;;1.20;;
6791;SDS011;3433;48.730;9.108;2023-05-10T15:33:17;3.60;;;1.13;;
6791;SDS011;3433;48.730;9.108;2023-05-10T15:35:44;2.57;;;1.40;;
6791;SDS011;3433;48.730;9.108;2023-05-10T15:38:11;1.13;;;0.97;;
6791;SDS011;3433;48.730;9.108;2023-05-10T15:40:38;1.83;;;1.00;;
6791;SDS011;3433;48.730;9.108;2023-05-10T15:43:05;1.73;;;0.90;;
6791;SDS011;3433;48.730;9.108;2023-05-10T15:45:33;3.80;;;1.10;;
6791;SDS011;3433;48.730;9.108;2023-05-10T15:48:00;2.00;;;1.13;;
6791;SDS011;3433;48.730;9.108;2023-05-10T15:50:27;1.10;;;1.00;;
6791;SDS011;3433;48.730;9.108;2023-05-10T15:52:54;1.37;;;0.80;;
6791;SDS011;3433;48.730;9.108;2023-05-10T15:55:21;2.23;;;1.00;;
6791;SDS011;3433;48.730;9.108;2023-05-10T15:57:48;0.70;;;0.70;;
6791;SDS011;3433;48.730;9.108;2023-05-10T16:00:18;2.50;;;0.90;;
6791;SDS011;3433;48.730;9.108;2023-05-10T16:02:46;1.33;;;0.87;;
6791;SDS011;3433;48.730;9.108;2023-05-10T16:05:13;1.90;;;1.10;;
6791;SDS011;3433;48.730;9.108;2023-05-10T16:07:41;1.20;;;0.80;;
6791;SDS011;3433;48.730;9.108;2023-05-10T16:10:09;2.40;;;0.80;;
6791;SDS011;3433;48.730;9.108;2023-05-10T16:12:36;1.53;;;0.90;;
6791;SDS011;3433;48.730;9.108;2023-05-10T16:15:04;5.67;;;1.20;;